createdAt,value
2018-07-09T00:00:50.400Z,1015.07
2018-07-09T00:01:50.425Z,1015.05
2018-07-09T00:02:50.448Z,1015.05
2018-07-09T00:03:50.475Z,1015.05
2018-07-09T00:04:50.499Z,1015.07
2018-07-09T00:05:50.523Z,1015.08
2018-07-09T00:06:50.548Z,1015.07
2018-07-09T00:08:50.599Z,1015.07
2018-07-09T00:09:50.624Z,1015.04
2018-07-09T00:10:50.650Z,1015.03
2018-07-09T00:11:50.673Z,1015.04
2018-07-09T00:12:50.697Z,1015.04
2018-07-09T00:13:50.723Z,1015.04
2018-07-09T00:14:50.749Z,1015.04
2018-07-09T00:15:50.771Z,1015.06
2018-07-09T00:16:50.798Z,1015.07
2018-07-09T00:17:50.823Z,1015.08
2018-07-09T00:18:50.846Z,1015.07
2018-07-09T00:19:50.870Z,1015.08
2018-07-09T00:20:50.897Z,1015.06
2018-07-09T00:21:50.920Z,1015.09
2018-07-09T00:22:50.945Z,1015.08
2018-07-09T00:24:50.995Z,1015.07
2018-07-09T00:25:51.021Z,1015.11
2018-07-09T00:26:51.044Z,1015.1
2018-07-09T00:27:51.071Z,1015.15
2018-07-09T00:28:51.095Z,1015.1
2018-07-09T00:29:51.119Z,1015.12
2018-07-09T00:30:51.144Z,1015.1
2018-07-09T00:31:51.169Z,1015.12
2018-07-09T00:32:51.195Z,1015.14
2018-07-09T00:33:51.221Z,1015.11
2018-07-09T00:34:51.243Z,1015.13
2018-07-09T00:35:51.267Z,1015.11
2018-07-09T00:36:51.293Z,1015.09
2018-07-09T00:37:51.317Z,1015.12
2018-07-09T00:39:51.368Z,1015.11
2018-07-09T00:40:51.392Z,1015.08
2018-07-09T00:41:51.419Z,1015.07
2018-07-09T00:42:51.441Z,1015.08
2018-07-09T00:43:51.466Z,1015.06
2018-07-09T00:44:51.489Z,1015.09
2018-07-09T00:45:51.514Z,1015.08
2018-07-09T00:46:51.539Z,1015.03
2018-07-09T00:47:51.563Z,1015.05
2018-07-09T00:48:51.588Z,1015.05
2018-07-09T00:49:51.613Z,1015.02
2018-07-09T00:50:51.683Z,1015.06
2018-07-09T00:51:51.662Z,1015.03
2018-07-09T00:52:51.686Z,1015.02
2018-07-09T00:53:51.711Z,1015.04
2018-07-09T00:54:51.736Z,1015
2018-07-09T00:55:51.761Z,1015.04
2018-07-09T00:56:51.785Z,1015.01
2018-07-09T00:57:51.809Z,1015.01
2018-07-09T00:58:51.834Z,1015.03
2018-07-09T00:59:51.859Z,1015.09
2018-07-09T01:00:51.883Z,1015.05
2018-07-09T01:01:51.910Z,1015.08
2018-07-09T01:02:51.932Z,1015.09
2018-07-09T01:03:51.957Z,1015.05
2018-07-09T01:04:51.981Z,1015.07
2018-07-09T01:05:52.005Z,1015.03
2018-07-09T01:06:52.030Z,1015.03
2018-07-09T01:07:52.054Z,1015.03
2018-07-09T01:08:52.080Z,1014.99
2018-07-09T01:09:52.102Z,1014.96
2018-07-09T01:11:52.152Z,1014.97
2018-07-09T01:12:52.177Z,1014.93
2018-07-09T01:13:52.201Z,1014.93
2018-07-09T01:14:52.225Z,1014.92
2018-07-09T01:15:52.250Z,1014.95
2018-07-09T01:16:52.276Z,1014.95
2018-07-09T01:17:52.298Z,1014.94
2018-07-09T01:18:52.323Z,1014.99
2018-07-09T01:19:52.349Z,1014.98
2018-07-09T01:20:52.372Z,1014.95
2018-07-09T01:21:52.397Z,1014.94
2018-07-09T01:22:52.421Z,1014.97
2018-07-09T01:23:52.446Z,1014.97
2018-07-09T01:24:52.470Z,1014.98
2018-07-09T01:25:52.494Z,1014.97
2018-07-09T01:27:52.543Z,1014.99
2018-07-09T01:28:52.567Z,1014.94
2018-07-09T01:29:52.593Z,1014.96
2018-07-09T01:30:52.617Z,1014.97
2018-07-09T01:31:52.640Z,1014.97
2018-07-09T01:32:52.668Z,1014.94
2018-07-09T01:33:52.690Z,1014.94
2018-07-09T01:34:52.715Z,1014.95
2018-07-09T01:35:52.739Z,1014.96
2018-07-09T01:36:52.763Z,1014.94
2018-07-09T01:37:52.786Z,1014.95
2018-07-09T01:38:52.812Z,1014.92
2018-07-09T01:39:52.840Z,1014.92
2018-07-09T01:40:52.860Z,1014.93
2018-07-09T01:41:52.884Z,1014.92
2018-07-09T01:43:52.933Z,1014.86
2018-07-09T01:44:52.958Z,1014.89
2018-07-09T01:45:52.983Z,1014.88
2018-07-09T01:46:53.006Z,1014.87
2018-07-09T01:47:53.031Z,1014.9
2018-07-09T01:48:53.055Z,1014.85
2018-07-09T01:49:53.079Z,1014.86
2018-07-09T01:50:53.103Z,1014.82
2018-07-09T01:51:53.131Z,1014.84
2018-07-09T01:52:53.152Z,1014.85
2018-07-09T01:53:53.175Z,1014.81
2018-07-09T01:54:53.200Z,1014.87
2018-07-09T01:55:53.226Z,1014.85
2018-07-09T01:56:53.249Z,1014.84
2018-07-09T01:57:53.273Z,1014.88
2018-07-09T01:59:53.322Z,1014.9
2018-07-09T02:00:53.347Z,1014.87
2018-07-09T02:01:53.376Z,1014.85
2018-07-09T02:02:53.394Z,1014.87
2018-07-09T02:03:53.419Z,1014.87
2018-07-09T02:04:53.445Z,1014.86
2018-07-09T02:05:53.468Z,1014.88
2018-07-09T02:06:53.492Z,1014.86
2018-07-09T02:07:53.517Z,1014.85
2018-07-09T02:08:53.540Z,1014.86
2018-07-09T02:09:53.564Z,1014.89
2018-07-09T02:10:53.589Z,1014.92
2018-07-09T02:11:53.613Z,1014.9
2018-07-09T02:12:53.637Z,1014.9
2018-07-09T02:14:53.687Z,1014.87
2018-07-09T02:15:53.710Z,1014.87
2018-07-09T02:16:53.738Z,1014.88
2018-07-09T02:17:53.759Z,1014.86
2018-07-09T02:18:53.783Z,1014.83
2018-07-09T02:19:53.907Z,1014.85
2018-07-09T02:20:53.835Z,1014.87
2018-07-09T02:21:53.856Z,1014.83
2018-07-09T02:22:53.880Z,1014.86
2018-07-09T02:23:53.903Z,1014.84
2018-07-09T02:24:53.928Z,1014.88
2018-07-09T02:25:53.952Z,1014.86
2018-07-09T02:26:53.981Z,1014.87
2018-07-09T02:27:54.001Z,1014.86
2018-07-09T02:28:54.024Z,1014.87
2018-07-09T02:29:54.049Z,1014.89
2018-07-09T02:30:54.074Z,1014.93
2018-07-09T02:31:54.095Z,1014.88
2018-07-09T02:32:54.122Z,1014.85
2018-07-09T02:33:54.147Z,1014.84
2018-07-09T02:34:54.170Z,1014.82
2018-07-09T02:35:54.193Z,1014.81
2018-07-09T02:36:54.218Z,1014.81
2018-07-09T02:37:54.243Z,1014.8
2018-07-09T02:38:54.267Z,1014.79
2018-07-09T02:39:54.291Z,1014.81
2018-07-09T02:40:54.315Z,1014.81
2018-07-09T02:41:54.337Z,1014.78
2018-07-09T02:42:54.362Z,1014.74
2018-07-09T02:43:54.386Z,1014.72
2018-07-09T02:44:54.410Z,1014.71
2018-07-09T02:46:54.459Z,1014.71
2018-07-09T02:47:54.482Z,1014.75
2018-07-09T02:48:54.505Z,1014.77
2018-07-09T02:49:54.534Z,1014.79
2018-07-09T02:50:54.555Z,1014.75
2018-07-09T02:51:54.583Z,1014.75
2018-07-09T02:52:54.602Z,1014.77
2018-07-09T02:53:54.627Z,1014.77
2018-07-09T02:54:54.651Z,1014.76
2018-07-09T02:55:54.724Z,1014.79
2018-07-09T02:56:54.698Z,1014.77
2018-07-09T02:57:54.723Z,1014.78
2018-07-09T02:58:54.746Z,1014.77
2018-07-09T02:59:54.871Z,1014.79
2018-07-09T03:00:54.953Z,1014.77
2018-07-09T03:02:54.843Z,1014.8
2018-07-09T03:03:54.868Z,1014.79
2018-07-09T03:04:54.890Z,1014.8
2018-07-09T03:05:54.914Z,1014.77
2018-07-09T03:06:54.938Z,1014.76
2018-07-09T03:07:54.961Z,1014.77
2018-07-09T03:08:54.986Z,1014.76
2018-07-09T03:09:55.011Z,1014.76
2018-07-09T03:10:55.034Z,1014.8
2018-07-09T03:11:55.058Z,1014.8
2018-07-09T03:12:55.083Z,1014.83
2018-07-09T03:13:55.107Z,1014.77
2018-07-09T03:14:55.130Z,1014.8
2018-07-09T03:15:55.156Z,1014.82
2018-07-09T03:16:55.180Z,1014.83
2018-07-09T03:18:55.228Z,1014.81
2018-07-09T03:19:55.251Z,1014.82
2018-07-09T03:20:55.274Z,1014.85
2018-07-09T03:21:55.298Z,1014.81
2018-07-09T03:22:55.323Z,1014.83
2018-07-09T03:23:55.345Z,1014.81
2018-07-09T03:24:55.370Z,1014.82
2018-07-09T03:25:55.394Z,1014.83
2018-07-09T03:26:55.417Z,1014.85
2018-07-09T03:27:55.444Z,1014.84
2018-07-09T03:28:55.465Z,1014.83
2018-07-09T03:29:55.490Z,1014.82
2018-07-09T03:30:55.513Z,1014.87
2018-07-09T03:31:55.538Z,1014.84
2018-07-09T03:32:55.664Z,1014.9
2018-07-09T03:34:55.612Z,1014.89
2018-07-09T03:35:55.634Z,1014.88
2018-07-09T03:36:55.657Z,1014.87
2018-07-09T03:37:55.680Z,1014.88
2018-07-09T03:38:55.712Z,1014.86
2018-07-09T03:39:55.727Z,1014.82
2018-07-09T03:40:55.752Z,1014.83
2018-07-09T03:41:55.776Z,1014.82
2018-07-09T03:42:55.801Z,1014.84
2018-07-09T03:43:55.822Z,1014.84
2018-07-09T03:44:55.847Z,1014.84
2018-07-09T03:45:55.872Z,1014.85
2018-07-09T03:46:55.896Z,1014.85
2018-07-09T03:47:55.921Z,1014.81
2018-07-09T03:49:55.969Z,1014.82
2018-07-09T03:50:55.996Z,1014.81
2018-07-09T03:51:56.016Z,1014.79
2018-07-09T03:52:56.041Z,1014.76
2018-07-09T03:53:56.065Z,1014.76
2018-07-09T03:54:56.087Z,1014.79
2018-07-09T03:55:56.112Z,1014.82
2018-07-09T03:56:56.136Z,1014.82
2018-07-09T03:57:56.160Z,1014.81
2018-07-09T03:58:56.185Z,1014.79
2018-07-09T03:59:56.208Z,1014.81
2018-07-09T04:00:56.235Z,1014.82
2018-07-09T04:01:56.255Z,1014.82
2018-07-09T04:02:56.279Z,1014.82
2018-07-09T04:03:56.304Z,1014.82
2018-07-09T04:04:56.329Z,1014.81
2018-07-09T04:05:56.353Z,1014.82
2018-07-09T04:06:56.377Z,1014.8
2018-07-09T04:07:56.401Z,1014.79
2018-07-09T04:08:56.428Z,1014.78
2018-07-09T04:09:56.448Z,1014.78
2018-07-09T04:10:56.473Z,1014.79
2018-07-09T04:11:56.497Z,1014.76
2018-07-09T04:12:56.520Z,1014.79
2018-07-09T04:13:56.546Z,1014.76
2018-07-09T04:14:56.570Z,1014.73
2018-07-09T04:15:56.594Z,1014.74
2018-07-09T04:16:56.617Z,1014.77
2018-07-09T04:17:56.647Z,1014.91
2018-07-09T04:18:56.668Z,1015.01
2018-07-09T04:19:56.690Z,1015.08
2018-07-09T04:21:56.740Z,1015.12
2018-07-09T04:22:56.767Z,1015.1
2018-07-09T04:23:56.788Z,1015.02
2018-07-09T04:24:56.814Z,1014.95
2018-07-09T04:25:56.839Z,1014.96
2018-07-09T04:26:56.865Z,1014.97
2018-07-09T04:27:56.890Z,1015.05
2018-07-09T04:28:56.914Z,1015.08
2018-07-09T04:29:56.940Z,1015.06
2018-07-09T04:30:56.965Z,1015.1
2018-07-09T04:31:56.993Z,1015.21
2018-07-09T04:32:57.018Z,1015.24
2018-07-09T04:33:57.045Z,1015.19
2018-07-09T04:34:57.073Z,1015.23
2018-07-09T04:35:57.101Z,1015.27
2018-07-09T04:37:57.248Z,1015.19
2018-07-09T04:38:57.178Z,1015.24
2018-07-09T04:39:57.207Z,1015.18
2018-07-09T04:40:57.234Z,1015.23
2018-07-09T04:41:57.262Z,1015.22
2018-07-09T04:42:57.291Z,1015.24
2018-07-09T04:43:57.319Z,1015.23
2018-07-09T04:44:57.349Z,1015.21
2018-07-09T04:45:57.376Z,1015.15
2018-07-09T04:46:57.406Z,1015.2
2018-07-09T04:47:57.434Z,1015.19
2018-07-09T04:48:57.464Z,1015.17
2018-07-09T04:49:57.492Z,1015.17
2018-07-09T04:50:57.522Z,1015.11
2018-07-09T04:51:57.553Z,1015.16
2018-07-09T04:53:57.618Z,1015.11
2018-07-09T04:54:57.644Z,1015.08
2018-07-09T04:55:57.677Z,1015.07
2018-07-09T04:56:57.713Z,1015.16
2018-07-09T04:57:57.733Z,1015.07
2018-07-09T04:58:57.764Z,1015.09
2018-07-09T04:59:57.796Z,1015.09
2018-07-09T05:00:57.828Z,1015.12
2018-07-09T05:01:57.859Z,1015.18
2018-07-09T05:02:57.889Z,1015.13
2018-07-09T05:03:57.921Z,1015.17
2018-07-09T05:04:58.010Z,1015.18
2018-07-09T05:05:57.995Z,1015.19
2018-07-09T05:06:58.018Z,1015.25
2018-07-09T05:07:58.049Z,1015.29
2018-07-09T05:09:58.115Z,1015.29
2018-07-09T05:10:58.146Z,1015.3
2018-07-09T05:11:58.175Z,1015.34
2018-07-09T05:12:58.249Z,1015.4
2018-07-09T05:13:58.243Z,1015.39
2018-07-09T05:14:58.373Z,1015.4
2018-07-09T05:15:58.306Z,1015.43
2018-07-09T05:16:58.339Z,1015.41
2018-07-09T05:17:58.372Z,1015.44
2018-07-09T05:18:58.404Z,1015.42
2018-07-09T05:19:58.436Z,1015.43
2018-07-09T05:20:58.471Z,1015.41
2018-07-09T05:21:58.505Z,1015.45
2018-07-09T05:22:58.537Z,1015.47
2018-07-09T05:24:58.609Z,1015.48
2018-07-09T05:25:58.637Z,1015.49
2018-07-09T05:26:58.675Z,1015.49
2018-07-09T05:27:58.706Z,1015.5
2018-07-09T05:28:58.739Z,1015.47
2018-07-09T05:29:58.773Z,1015.49
2018-07-09T05:30:58.807Z,1015.52
2018-07-09T05:31:58.839Z,1015.39
2018-07-09T05:32:58.874Z,1015.45
2018-07-09T05:33:58.908Z,1015.52
2018-07-09T05:34:58.943Z,1015.55
2018-07-09T05:35:58.977Z,1015.53
2018-07-09T05:36:59.011Z,1015.38
2018-07-09T05:37:59.049Z,1015.43
2018-07-09T05:38:59.080Z,1015.35
2018-07-09T05:39:59.182Z,1015.45
2018-07-09T05:40:59.148Z,1015.49
2018-07-09T05:41:59.183Z,1015.5
2018-07-09T05:42:59.218Z,1015.38
2018-07-09T05:43:59.251Z,1015.45
2018-07-09T05:44:59.286Z,1015.47
2018-07-09T05:45:59.319Z,1015.46
2018-07-09T05:46:59.375Z,1015.39
2018-07-09T05:47:59.388Z,1015.34
2018-07-09T05:48:59.422Z,1015.31
2018-07-09T05:49:59.457Z,1015.44
2018-07-09T05:50:59.496Z,1015.27
2018-07-09T05:51:59.526Z,1015.39
2018-07-09T05:52:59.559Z,1015.42
2018-07-09T05:53:59.598Z,1015.31
2018-07-09T05:54:59.628Z,1014.98
2018-07-09T05:56:59.695Z,1015.32
2018-07-09T05:57:59.780Z,1015.23
2018-07-09T05:58:59.866Z,1015
2018-07-09T05:59:59.796Z,1015.13
2018-07-09T06:00:59.830Z,1014.9
2018-07-09T06:01:59.863Z,1015.53
2018-07-09T06:02:59.898Z,1015.42
2018-07-09T06:03:59.931Z,1014.87
2018-07-09T06:04:59.963Z,1014.91
2018-07-09T06:05:59.997Z,1015.5
2018-07-09T06:07:00.043Z,1015.01
2018-07-09T06:08:00.064Z,1015.46
2018-07-09T06:09:00.108Z,1015.4
2018-07-09T06:10:00.131Z,1015.42
2018-07-09T06:11:00.204Z,1015.37
2018-07-09T06:13:00.231Z,1015.32
2018-07-09T06:14:00.265Z,1015.27
2018-07-09T06:15:00.352Z,1015.19
2018-07-09T06:16:00.333Z,1015.21
2018-07-09T06:17:00.367Z,1015.16
2018-07-09T06:18:00.401Z,1015.15
2018-07-09T06:19:00.439Z,1015.14
2018-07-09T06:20:00.471Z,1015.12
2018-07-09T06:21:00.504Z,1015.07
2018-07-09T06:22:00.541Z,1015.13
2018-07-09T06:23:00.576Z,1015.07
2018-07-09T06:24:00.614Z,1015.09
2018-07-09T06:25:00.644Z,1015.11
2018-07-09T06:26:00.681Z,1015.12
2018-07-09T06:27:00.718Z,1015.15
2018-07-09T06:29:00.788Z,1015.19
2018-07-09T06:30:00.824Z,1015.24
2018-07-09T06:31:00.860Z,1015.26
2018-07-09T06:32:00.896Z,1015.24
2018-07-09T06:33:00.933Z,1015.27
2018-07-09T06:34:00.978Z,1015.3
2018-07-09T06:35:01.006Z,1015.26
2018-07-09T06:36:01.041Z,1015.19
2018-07-09T06:37:01.080Z,1015.23
2018-07-09T06:38:01.115Z,1015.19
2018-07-09T06:39:01.151Z,1015.2
2018-07-09T06:40:01.187Z,1015.19
2018-07-09T06:41:01.225Z,1015.22
2018-07-09T06:42:01.261Z,1015.17
2018-07-09T06:43:01.329Z,1015.24
2018-07-09T06:45:01.371Z,1015.26
2018-07-09T06:46:01.407Z,1015.27
2018-07-09T06:47:01.444Z,1015.29
2018-07-09T06:48:01.482Z,1015.34
2018-07-09T06:49:01.519Z,1015.44
2018-07-09T06:50:01.562Z,1015.41
2018-07-09T06:51:01.592Z,1015.34
2018-07-09T06:52:01.631Z,1015.39
2018-07-09T06:53:01.668Z,1015.34
2018-07-09T06:54:01.704Z,1015.32
2018-07-09T06:55:01.743Z,1015.3
2018-07-09T06:56:01.804Z,1015.29
2018-07-09T06:57:01.818Z,1015.32
2018-07-09T06:58:01.856Z,1015.38
2018-07-09T07:00:01.929Z,1015.42
2018-07-09T07:01:01.969Z,1015.44
2018-07-09T07:02:02.004Z,1015.45
2018-07-09T07:03:02.044Z,1015.43
2018-07-09T07:04:02.084Z,1015.46
2018-07-09T07:05:02.165Z,1015.55
2018-07-09T07:06:02.155Z,1015.66
2018-07-09T07:07:02.192Z,1015.76
2018-07-09T07:08:02.227Z,1015.88
2018-07-09T07:09:02.309Z,1015.84
2018-07-09T07:10:02.358Z,1015.85
2018-07-09T07:11:02.339Z,1015.86
2018-07-09T07:12:02.377Z,1015.88
2018-07-09T07:13:02.421Z,1015.95
2018-07-09T07:14:02.459Z,1015.92
2018-07-09T07:15:02.489Z,1016.01
2018-07-09T07:16:02.527Z,1016.13
2018-07-09T07:17:02.566Z,1016.04
2018-07-09T07:18:02.602Z,1016.03
2018-07-09T07:19:02.639Z,1015.97
2018-07-09T07:20:02.677Z,1016.05
2018-07-09T07:21:02.785Z,1016.04
2018-07-09T07:22:02.751Z,1016.18
2018-07-09T07:23:02.789Z,1016.18
2018-07-09T07:24:02.827Z,1016.18
2018-07-09T07:25:02.863Z,1016.17
2018-07-09T07:26:02.905Z,1016.2
2018-07-09T07:27:02.939Z,1016.27
2018-07-09T07:28:02.983Z,1016.3
2018-07-09T07:29:03.014Z,1016.28
2018-07-09T07:30:03.051Z,1016.25
2018-07-09T07:32:03.128Z,1016.16
2018-07-09T07:33:03.172Z,1016.2
2018-07-09T07:34:03.201Z,1016.23
2018-07-09T07:35:03.242Z,1016.29
2018-07-09T07:36:03.275Z,1016.33
2018-07-09T07:37:03.312Z,1016.36
2018-07-09T07:38:03.348Z,1016.36
2018-07-09T07:39:03.388Z,1016.39
2018-07-09T07:40:03.426Z,1016.37
2018-07-09T07:41:03.461Z,1016.48
2018-07-09T07:42:03.503Z,1016.37
2018-07-09T07:43:03.536Z,1016.52
2018-07-09T07:44:03.578Z,1016.58
2018-07-09T07:45:03.609Z,1016.58
2018-07-09T07:46:03.644Z,1016.55
2018-07-09T07:48:03.719Z,1016.62
2018-07-09T07:49:03.755Z,1016.53
2018-07-09T07:50:03.791Z,1016.53
2018-07-09T07:51:03.830Z,1016.39
2018-07-09T07:52:03.865Z,1016.34
2018-07-09T07:53:03.901Z,1016.36
2018-07-09T07:54:03.942Z,1016.33
2018-07-09T07:55:03.980Z,1016.31
2018-07-09T07:56:04.012Z,1016.18
2018-07-09T07:57:04.049Z,1016.05
2018-07-09T07:58:04.085Z,1015.91
2018-07-09T07:59:04.122Z,1015.73
2018-07-09T08:00:04.157Z,1015.66
2018-07-09T08:01:04.194Z,1015.51
2018-07-09T08:02:04.230Z,1015.39
2018-07-09T08:04:04.301Z,1015.43
2018-07-09T08:05:04.337Z,1015.46
2018-07-09T08:06:04.375Z,1015.47
2018-07-09T08:07:04.410Z,1015.5
2018-07-09T08:08:04.447Z,1015.49
2018-07-09T08:09:04.481Z,1015.46
2018-07-09T08:10:04.518Z,1015.48
2018-07-09T08:11:11.069Z,1015.54
2018-07-09T08:12:59.657Z,1015.45
2018-07-09T08:13:49.862Z,1015.47
2018-07-09T08:14:49.899Z,1015.37
2018-07-09T08:15:49.935Z,1015.32
2018-07-09T08:16:49.970Z,1015.19
2018-07-09T08:17:50.008Z,1015.09
2018-07-09T08:18:50.043Z,1015.02
2018-07-09T08:19:50.079Z,1014.93
2018-07-09T08:20:50.115Z,1014.95
2018-07-09T08:21:50.148Z,1015.02
2018-07-09T08:22:50.188Z,1015.03
2018-07-09T08:23:50.236Z,1015.08
2018-07-09T08:24:50.336Z,1015.11
2018-07-09T08:25:50.311Z,1015.15
2018-07-09T08:26:50.326Z,1015.12
2018-07-09T08:27:50.362Z,1015.14
2018-07-09T08:28:50.397Z,1015.01
2018-07-09T08:29:50.434Z,1015.08
2018-07-09T08:30:50.467Z,1015.07
2018-07-09T08:31:50.502Z,1015.06
2018-07-09T08:32:50.539Z,1015.03
2018-07-09T08:33:50.572Z,1014.97
2018-07-09T08:34:50.605Z,1014.97
2018-07-09T08:35:50.644Z,1014.93
2018-07-09T08:36:50.677Z,1014.89
2018-07-09T08:37:50.746Z,1014.93
2018-07-09T08:39:50.782Z,1014.7
2018-07-09T08:40:50.817Z,1014.74
2018-07-09T08:41:50.852Z,1014.64
2018-07-09T08:42:50.889Z,1014.75
2018-07-09T08:43:50.924Z,1014.68
2018-07-09T08:44:50.958Z,1014.77
2018-07-09T08:45:50.993Z,1014.72
2018-07-09T08:46:51.031Z,1014.88
2018-07-09T08:47:51.061Z,1014.85
2018-07-09T08:48:51.096Z,1014.87
2018-07-09T08:49:51.131Z,1014.87
2018-07-09T08:50:51.166Z,1014.94
2018-07-09T08:51:51.201Z,1014.92
2018-07-09T08:52:51.235Z,1014.91
2018-07-09T08:53:51.269Z,1014.86
2018-07-09T08:55:51.339Z,1014.8
2018-07-09T08:56:51.374Z,1014.62
2018-07-09T08:57:51.408Z,1014.63
2018-07-09T08:58:51.442Z,1014.57
2018-07-09T08:59:51.476Z,1014.55
2018-07-09T09:00:51.511Z,1014.61
2018-07-09T09:01:51.545Z,1014.6
2018-07-09T09:02:51.581Z,1014.53
2018-07-09T09:03:51.739Z,1014.46
2018-07-09T09:04:51.648Z,1014.52
2018-07-09T09:05:51.684Z,1014.53
2018-07-09T09:06:51.719Z,1014.55
2018-07-09T09:07:51.752Z,1014.51
2018-07-09T09:08:51.787Z,1014.5
2018-07-09T09:09:51.822Z,1014.5
2018-07-09T09:11:51.891Z,1014.38
2018-07-09T09:12:51.925Z,1014.38
2018-07-09T09:13:51.959Z,1014.42
2018-07-09T09:14:51.993Z,1014.4
2018-07-09T09:15:52.028Z,1014.38
2018-07-09T09:16:52.062Z,1014.35
2018-07-09T09:17:52.096Z,1014.38
2018-07-09T09:18:52.134Z,1014.35
2018-07-09T09:19:52.165Z,1014.39
2018-07-09T09:20:52.200Z,1014.31
2018-07-09T09:21:52.234Z,1014.27
2018-07-09T09:22:52.267Z,1014.24
2018-07-09T09:23:52.301Z,1014.35
2018-07-09T09:24:52.343Z,1014.32
2018-07-09T09:25:52.370Z,1014.33
2018-07-09T09:27:52.439Z,1014.32
2018-07-09T09:28:52.476Z,1014.33
2018-07-09T09:29:52.507Z,1014.39
2018-07-09T09:30:52.542Z,1014.39
2018-07-09T09:31:52.576Z,1014.4
2018-07-09T09:32:52.608Z,1014.32
2018-07-09T09:33:52.643Z,1014.3
2018-07-09T09:34:52.680Z,1014.3
2018-07-09T09:35:52.715Z,1014.3
2018-07-09T09:36:52.746Z,1014.34
2018-07-09T09:37:52.787Z,1014.28
2018-07-09T09:38:52.814Z,1014.25
2018-07-09T09:39:52.848Z,1014.3
2018-07-09T09:40:52.882Z,1014.27
2018-07-09T09:42:52.957Z,1014.22
2018-07-09T09:43:52.985Z,1014.24
2018-07-09T09:44:53.020Z,1014.16
2018-07-09T09:45:53.054Z,1014.19
2018-07-09T09:46:53.093Z,1014.17
2018-07-09T09:47:53.121Z,1014.21
2018-07-09T09:48:53.158Z,1014.15
2018-07-09T09:49:53.195Z,1014.15
2018-07-09T09:50:53.222Z,1014.13
2018-07-09T09:51:53.257Z,1014.14
2018-07-09T09:52:53.290Z,1014.14
2018-07-09T09:53:53.328Z,1014.09
2018-07-09T09:54:53.425Z,1014.12
2018-07-09T09:55:53.389Z,1014.13
2018-07-09T09:56:53.424Z,1014.12
2018-07-09T09:57:53.457Z,1014.21
2018-07-09T09:58:53.489Z,1014.17
2018-07-09T09:59:53.523Z,1014.19
2018-07-09T10:00:53.557Z,1014.14
2018-07-09T10:01:53.586Z,1014.2
2018-07-09T10:02:53.620Z,1014.15
2018-07-09T10:03:53.653Z,1014.2
2018-07-09T10:04:53.685Z,1014.14
2018-07-09T10:05:53.717Z,1014.18
2018-07-09T10:06:53.757Z,1014.22
2018-07-09T10:07:53.782Z,1014.18
2018-07-09T10:08:53.814Z,1014.22
2018-07-09T10:09:53.845Z,1014.22
2018-07-09T10:10:53.877Z,1014.23
2018-07-09T10:11:53.911Z,1014.21
2018-07-09T10:12:53.940Z,1014.2
2018-07-09T10:14:54.004Z,1014.19
2018-07-09T10:15:54.036Z,1014.2
2018-07-09T10:16:54.098Z,1014.2
2018-07-09T10:17:54.098Z,1014.22
2018-07-09T10:18:54.129Z,1014.23
2018-07-09T10:19:54.162Z,1014.19
2018-07-09T10:20:54.193Z,1014.17
2018-07-09T10:21:54.227Z,1014.16
2018-07-09T10:22:54.422Z,1014.24
2018-07-09T10:23:54.285Z,1014.21
2018-07-09T10:24:54.320Z,1014.23
2018-07-09T10:25:54.355Z,1014.2
2018-07-09T10:26:54.383Z,1014.16
2018-07-09T10:27:54.412Z,1014.25
2018-07-09T10:28:54.449Z,1014.19
2018-07-09T10:30:54.511Z,1014.13
2018-07-09T10:31:54.543Z,1014.17
2018-07-09T10:32:54.574Z,1014.13
2018-07-09T10:33:54.607Z,1014.05
2018-07-09T10:34:54.636Z,1014.13
2018-07-09T10:35:54.670Z,1014.09
2018-07-09T10:36:54.703Z,1014.1
2018-07-09T10:37:54.734Z,1014.05
2018-07-09T10:38:54.766Z,1014.05
2018-07-09T10:39:54.799Z,1014
2018-07-09T10:40:54.829Z,1013.98
2018-07-09T10:41:54.864Z,1013.98
2018-07-09T10:42:54.894Z,1013.94
2018-07-09T10:43:54.926Z,1013.97
2018-07-09T10:44:54.962Z,1013.97
2018-07-09T10:46:55.022Z,1013.96
2018-07-09T10:47:55.061Z,1013.94
2018-07-09T10:48:55.086Z,1013.93
2018-07-09T10:49:55.116Z,1013.92
2018-07-09T10:50:55.148Z,1013.94
2018-07-09T10:51:55.180Z,1013.95
2018-07-09T10:52:55.214Z,1013.99
2018-07-09T10:53:55.242Z,1014
2018-07-09T10:54:55.274Z,1014
2018-07-09T10:55:55.304Z,1014.02
2018-07-09T10:56:55.335Z,1013.99
2018-07-09T10:57:55.365Z,1013.93
2018-07-09T10:58:55.402Z,1013.96
2018-07-09T10:59:55.429Z,1014.03
2018-07-09T11:00:55.468Z,1014
2018-07-09T11:02:55.520Z,1013.97
2018-07-09T11:03:55.553Z,1014.03
2018-07-09T11:04:55.583Z,1014.04
2018-07-09T11:05:55.614Z,1014.02
2018-07-09T11:06:55.643Z,1014
2018-07-09T11:07:55.674Z,1013.99
2018-07-09T11:08:55.706Z,1014
2018-07-09T11:09:55.736Z,1013.99
2018-07-09T11:10:55.766Z,1013.99
2018-07-09T11:11:55.796Z,1013.98
2018-07-09T11:12:55.826Z,1014
2018-07-09T11:13:55.855Z,1014
2018-07-09T11:14:55.885Z,1014.01
2018-07-09T11:15:55.917Z,1013.97
2018-07-09T11:17:55.978Z,1014
2018-07-09T11:18:56.008Z,1013.94
2018-07-09T11:19:56.037Z,1013.93
2018-07-09T11:20:56.068Z,1013.94
2018-07-09T11:21:56.099Z,1013.95
2018-07-09T11:22:56.127Z,1014.01
2018-07-09T11:23:56.159Z,1013.97
2018-07-09T11:24:56.195Z,1013.94
2018-07-09T11:25:56.224Z,1013.89
2018-07-09T11:26:56.248Z,1013.85
2018-07-09T11:27:56.278Z,1013.83
2018-07-09T11:28:56.308Z,1013.75
2018-07-09T11:29:56.336Z,1013.76
2018-07-09T11:30:56.366Z,1013.77
2018-07-09T11:31:56.396Z,1013.74
2018-07-09T11:32:56.428Z,1013.67
2018-07-09T11:33:56.456Z,1013.66
2018-07-09T11:34:56.487Z,1013.66
2018-07-09T11:35:56.540Z,1013.67
2018-07-09T11:36:56.556Z,1013.62
2018-07-09T11:37:56.576Z,1013.64
2018-07-09T11:38:56.606Z,1013.58
2018-07-09T11:39:56.637Z,1013.45
2018-07-09T11:40:56.667Z,1013.6
2018-07-09T11:41:56.695Z,1013.63
2018-07-09T11:42:56.725Z,1013.63
2018-07-09T11:43:56.757Z,1013.6
2018-07-09T11:44:56.786Z,1013.64
2018-07-09T11:45:56.817Z,1013.48
2018-07-09T11:46:56.846Z,1013.67
2018-07-09T11:47:56.875Z,1013.63
2018-07-09T11:49:56.934Z,1013.56
2018-07-09T11:50:56.965Z,1013.57
2018-07-09T11:51:56.994Z,1013.56
2018-07-09T11:52:57.024Z,1013.5
2018-07-09T11:53:57.053Z,1013.53
2018-07-09T11:54:57.085Z,1013.51
2018-07-09T11:55:57.112Z,1013.44
2018-07-09T11:56:57.144Z,1013.44
2018-07-09T11:57:57.175Z,1013.45
2018-07-09T11:58:57.241Z,1013.58
2018-07-09T11:59:57.234Z,1013.46
2018-07-09T12:00:57.264Z,1013.49
2018-07-09T12:01:57.305Z,1013.41
2018-07-09T12:02:57.327Z,1013.46
2018-07-09T12:03:57.357Z,1013.42
2018-07-09T12:05:57.415Z,1013.46
2018-07-09T12:06:57.443Z,1013.48
2018-07-09T12:07:57.473Z,1013.46
2018-07-09T12:08:57.503Z,1013.49
2018-07-09T12:09:57.533Z,1013.4
2018-07-09T12:10:57.572Z,1013.45
2018-07-09T12:11:57.594Z,1013.5
2018-07-09T12:12:57.624Z,1013.5
2018-07-09T12:13:57.651Z,1013.44
2018-07-09T12:14:57.683Z,1013.48
2018-07-09T12:15:57.714Z,1013.43
2018-07-09T12:16:57.743Z,1013.48
2018-07-09T12:17:57.772Z,1013.36
2018-07-09T12:18:57.802Z,1013.46
2018-07-09T12:19:57.836Z,1013.38
2018-07-09T12:21:57.891Z,1013.42
2018-07-09T12:22:57.920Z,1013.42
2018-07-09T12:23:57.951Z,1013.38
2018-07-09T12:24:57.980Z,1013.36
2018-07-09T12:25:58.009Z,1013.37
2018-07-09T12:26:58.039Z,1013.37
2018-07-09T12:27:58.069Z,1013.33
2018-07-09T12:28:58.157Z,1013.35
2018-07-09T12:29:58.126Z,1013.31
2018-07-09T12:30:58.157Z,1013.38
2018-07-09T12:31:58.186Z,1013.31
2018-07-09T12:32:58.216Z,1013.3
2018-07-09T12:33:58.245Z,1013.31
2018-07-09T12:34:58.276Z,1013.37
2018-07-09T12:35:58.303Z,1013.3
2018-07-09T12:37:58.364Z,1013.3
2018-07-09T12:38:58.391Z,1013.31
2018-07-09T12:39:58.421Z,1013.29
2018-07-09T12:40:58.451Z,1013.32
2018-07-09T12:41:58.481Z,1013.29
2018-07-09T12:42:58.510Z,1013.38
2018-07-09T12:43:58.538Z,1013.33
2018-07-09T12:44:58.568Z,1013.41
2018-07-09T12:45:58.597Z,1013.38
2018-07-09T12:46:58.625Z,1013.42
2018-07-09T12:47:58.656Z,1013.36
2018-07-09T12:48:58.686Z,1013.4
2018-07-09T12:49:58.715Z,1013.29